sensor_id;sensor_type;location;lat;lon;timestamp;temperature;humidity
27795;DHT22;15176;50.844;4.412;2022-12-10T00:01:14;11.10;93.40
27795;DHT22;15176;50.844;4.412;2022-12-10T00:03:41;11.80;93.80
27795;DHT22;15176;50.844;4.412;2022-12-10T00:06:14;12.10;92.60
27795;DHT22;15176;50.844;4.412;2022-12-10T00:08:41;11.50;87.10
27795;DHT22;15176;50.844;4.412;2022-12-10T00:11:09;11.60;91.30
27795;DHT22;15176;50.844;4.412;2022-12-10T00:13:36;11.90;91.50
27795;DHT22;15176;50.844;4.412;2022-12-10T00:16:03;12.10;91.50
27795;DHT22;15176;50.844;4.412;2022-12-10T00:18:29;12.60;92.30
27795;DHT22;15176;50.844;4.412;2022-12-10T00:20:55;12.00;87.50
27795;DHT22;15176;50.844;4.412;2022-12-10T00:23:21;11.70;92.40
27795;DHT22;15176;50.844;4.412;2022-12-10T00:25:47;11.20;92.00
27795;DHT22;15176;50.844;4.412;2022-12-10T00:28:13;11.90;93.40
27795;DHT22;15176;50.844;4.412;2022-12-10T00:30:38;12.60;93.70
27795;DHT22;15176;50.844;4.412;2022-12-10T00:33:05;13.00;88.90
27795;DHT22;15176;50.844;4.412;2022-12-10T00:35:35;11.40;91.90
27795;DHT22;15176;50.844;4.412;2022-12-10T00:38:01;11.80;92.10
27795;DHT22;15176;50.844;4.412;2022-12-10T00:40:27;11.20;89.70
27795;DHT22;15176;50.844;4.412;2022-12-10T00:42:52;12.00;93.70
27795;DHT22;15176;50.844;4.412;2022-12-10T00:45:18;12.30;91.40
27795;DHT22;15176;50.844;4.412;2022-12-10T00:47:44;12.60;92.00
27795;DHT22;15176;50.844;4.412;2022-12-10T00:50:10;12.70;87.10
27795;DHT22;15176;50.844;4.412;2022-12-10T00:52:35;11.60;86.60
27795;DHT22;15176;50.844;4.412;2022-12-10T00:55:01;11.30;90.80
27795;DHT22;15176;50.844;4.412;2022-12-10T00:57:27;11.40;89.30
27795;DHT22;15176;50.844;4.412;2022-12-10T00:59:53;11.50;91.30
27795;DHT22;15176;50.844;4.412;2022-12-10T01:02:19;10.00;89.20
27795;DHT22;15176;50.844;4.412;2022-12-10T01:04:44;9.20;92.20
27795;DHT22;15176;50.844;4.412;2022-12-10T01:07:10;9.50;92.10
27795;DHT22;15176;50.844;4.412;2022-12-10T01:09:36;8.60;92.70
27795;DHT22;15176;50.844;4.412;2022-12-10T01:12:03;9.00;99.90
27795;DHT22;15176;50.844;4.412;2022-12-10T01:14:31;9.80;98.00
27795;DHT22;15176;50.844;4.412;2022-12-10T01:17:00;10.50;94.60
27795;DHT22;15176;50.844;4.412;2022-12-10T01:19:30;10.00;91.50
27795;DHT22;15176;50.844;4.412;2022-12-10T01:21:57;9.70;92.60
27795;DHT22;15176;50.844;4.412;2022-12-10T01:24:24;9.10;93.00
27795;DHT22;15176;50.844;4.412;2022-12-10T01:26:50;8.80;93.30
27795;DHT22;15176;50.844;4.412;2022-12-10T01:29:17;7.90;95.10
27795;DHT22;15176;50.844;4.412;2022-12-10T01:31:43;8.40;97.00
27795;DHT22;15176;50.844;4.412;2022-12-10T01:34:13;8.20;95.30
27795;DHT22;15176;50.844;4.412;2022-12-10T01:36:42;8.60;96.70
27795;DHT22;15176;50.844;4.412;2022-12-10T01:39:10;8.80;96.10
27795;DHT22;15176;50.844;4.412;2022-12-10T01:41:40;9.00;94.90
27795;DHT22;15176;50.844;4.412;2022-12-10T01:46:39;9.10;94.70
27795;DHT22;15176;50.844;4.412;2022-12-10T01:49:08;9.00;95.80
27795;DHT22;15176;50.844;4.412;2022-12-10T01:51:36;9.30;97.70
27795;DHT22;15176;50.844;4.412;2022-12-10T01:54:06;9.90;95.40
27795;DHT22;15176;50.844;4.412;2022-12-10T01:56:36;10.50;95.30
27795;DHT22;15176;50.844;4.412;2022-12-10T01:59:02;11.20;95.20
27795;DHT22;15176;50.844;4.412;2022-12-10T02:01:46;11.00;92.10
27795;DHT22;15176;50.844;4.412;2022-12-10T02:09:52;10.50;94.90
27795;DHT22;15176;50.844;4.412;2022-12-10T02:12:28;9.90;94.80
27795;DHT22;15176;50.844;4.412;2022-12-10T02:15:06;9.50;93.40
27795;DHT22;15176;50.844;4.412;2022-12-10T02:17:46;10.00;95.00
27795;DHT22;15176;50.844;4.412;2022-12-10T02:23:05;11.60;92.60
27795;DHT22;15176;50.844;4.412;2022-12-10T02:30:50;11.70;92.70
27795;DHT22;15176;50.844;4.412;2022-12-10T02:33:17;11.60;90.10
27795;DHT22;15176;50.844;4.412;2022-12-10T02:35:47;11.10;96.10
27795;DHT22;15176;50.844;4.412;2022-12-10T02:38:19;11.90;93.00
27795;DHT22;15176;50.844;4.412;2022-12-10T02:40:48;12.30;91.70
27795;DHT22;15176;50.844;4.412;2022-12-10T02:43:15;12.10;87.80
27795;DHT22;15176;50.844;4.412;2022-12-10T02:45:42;11.50;90.10
27795;DHT22;15176;50.844;4.412;2022-12-10T02:48:09;11.00;89.20
27795;DHT22;15176;50.844;4.412;2022-12-10T02:50:36;10.00;90.70
27795;DHT22;15176;50.844;4.412;2022-12-10T02:53:02;10.10;94.20
27795;DHT22;15176;50.844;4.412;2022-12-10T02:55:36;9.40;92.40
27795;DHT22;15176;50.844;4.412;2022-12-10T03:01:06;9.80;93.10
27795;DHT22;15176;50.844;4.412;2022-12-10T03:03:49;10.10;97.80
27795;DHT22;15176;50.844;4.412;2022-12-10T03:08:47;10.50;93.40
27795;DHT22;15176;50.844;4.412;2022-12-10T03:11:19;10.70;93.30
27795;DHT22;15176;50.844;4.412;2022-12-10T03:16:19;11.00;94.60
27795;DHT22;15176;50.844;4.412;2022-12-10T03:18:49;11.00;92.20
27795;DHT22;15176;50.844;4.412;2022-12-10T03:21:16;10.90;92.20
27795;DHT22;15176;50.844;4.412;2022-12-10T03:23:46;10.70;92.60
27795;DHT22;15176;50.844;4.412;2022-12-10T03:26:12;9.90;93.20
27795;DHT22;15176;50.844;4.412;2022-12-10T03:28:45;9.90;93.10
27795;DHT22;15176;50.844;4.412;2022-12-10T03:31:13;9.80;94.10
27795;DHT22;15176;50.844;4.412;2022-12-10T03:33:39;9.80;93.70
27795;DHT22;15176;50.844;4.412;2022-12-10T03:36:06;9.70;93.10
27795;DHT22;15176;50.844;4.412;2022-12-10T03:38:33;8.80;94.60
27795;DHT22;15176;50.844;4.412;2022-12-10T03:40:59;8.30;97.10
27795;DHT22;15176;50.844;4.412;2022-12-10T03:43:25;8.80;98.30
27795;DHT22;15176;50.844;4.412;2022-12-10T03:45:51;9.70;99.90
27795;DHT22;15176;50.844;4.412;2022-12-10T03:48:17;9.80;97.30
27795;DHT22;15176;50.844;4.412;2022-12-10T03:50:42;9.80;94.80
27795;DHT22;15176;50.844;4.412;2022-12-10T03:53:08;10.20;96.20
27795;DHT22;15176;50.844;4.412;2022-12-10T03:55:34;10.40;94.60
27795;DHT22;15176;50.844;4.412;2022-12-10T03:57:59;10.80;95.70
27795;DHT22;15176;50.844;4.412;2022-12-10T04:00:25;11.40;95.90
27795;DHT22;15176;50.844;4.412;2022-12-10T04:02:51;11.30;93.00
27795;DHT22;15176;50.844;4.412;2022-12-10T04:05:17;11.30;92.50
27795;DHT22;15176;50.844;4.412;2022-12-10T04:07:42;10.20;91.00
27795;DHT22;15176;50.844;4.412;2022-12-10T04:10:08;9.80;93.00
27795;DHT22;15176;50.844;4.412;2022-12-10T04:12:34;10.30;96.00
27795;DHT22;15176;50.844;4.412;2022-12-10T04:14:59;10.30;93.80
27795;DHT22;15176;50.844;4.412;2022-12-10T04:17:43;10.60;96.30
27795;DHT22;15176;50.844;4.412;2022-12-10T04:20:10;9.90;93.90
27795;DHT22;15176;50.844;4.412;2022-12-10T04:22:55;10.30;95.50
27795;DHT22;15176;50.844;4.412;2022-12-10T04:25:40;10.00;92.90
27795;DHT22;15176;50.844;4.412;2022-12-10T04:28:25;9.70;94.90
27795;DHT22;15176;50.844;4.412;2022-12-10T04:30:52;9.00;94.10
27795;DHT22;15176;50.844;4.412;2022-12-10T04:33:17;8.20;96.60
27795;DHT22;15176;50.844;4.412;2022-12-10T04:35:43;8.60;99.90
27795;DHT22;15176;50.844;4.412;2022-12-10T04:38:09;8.70;99.20
27795;DHT22;15176;50.844;4.412;2022-12-10T04:40:36;9.40;97.50
27795;DHT22;15176;50.844;4.412;2022-12-10T04:43:02;9.60;97.80
27795;DHT22;15176;50.844;4.412;2022-12-10T04:45:27;8.70;95.60
27795;DHT22;15176;50.844;4.412;2022-12-10T04:47:53;8.00;99.30
27795;DHT22;15176;50.844;4.412;2022-12-10T04:50:20;8.80;99.50
27795;DHT22;15176;50.844;4.412;2022-12-10T04:52:46;9.30;99.50
27795;DHT22;15176;50.844;4.412;2022-12-10T04:55:12;9.70;97.40
27795;DHT22;15176;50.844;4.412;2022-12-10T04:57:38;9.60;95.40
27795;DHT22;15176;50.844;4.412;2022-12-10T05:00:04;9.60;97.80
27795;DHT22;15176;50.844;4.412;2022-12-10T05:02:30;8.80;99.90
27795;DHT22;15176;50.844;4.412;2022-12-10T05:04:55;9.00;97.30
27795;DHT22;15176;50.844;4.412;2022-12-10T05:07:22;8.80;99.30
27795;DHT22;15176;50.844;4.412;2022-12-10T05:09:48;8.70;97.20
27795;DHT22;15176;50.844;4.412;2022-12-10T05:12:14;8.60;99.90
27795;DHT22;15176;50.844;4.412;2022-12-10T05:14:40;8.30;97.10
27795;DHT22;15176;50.844;4.412;2022-12-10T05:17:05;7.70;99.90
27795;DHT22;15176;50.844;4.412;2022-12-10T05:19:31;7.80;99.90
27795;DHT22;15176;50.844;4.412;2022-12-10T05:21:57;7.90;99.90
27795;DHT22;15176;50.844;4.412;2022-12-10T05:24:42;8.20;99.90
27795;DHT22;15176;50.844;4.412;2022-12-10T05:27:08;9.10;99.90
27795;DHT22;15176;50.844;4.412;2022-12-10T05:29:34;9.50;98.00
27795;DHT22;15176;50.844;4.412;2022-12-10T05:32:00;9.40;97.10
27795;DHT22;15176;50.844;4.412;2022-12-10T05:34:28;9.40;98.00
27795;DHT22;15176;50.844;4.412;2022-12-10T05:36:53;9.70;98.00
27795;DHT22;15176;50.844;4.412;2022-12-10T05:39:19;9.30;99.00
27795;DHT22;15176;50.844;4.412;2022-12-10T05:41:45;9.20;97.40
27795;DHT22;15176;50.844;4.412;2022-12-10T05:44:11;9.80;99.80
27795;DHT22;15176;50.844;4.412;2022-12-10T05:46:37;9.70;98.80
27795;DHT22;15176;50.844;4.412;2022-12-10T05:49:05;10.00;98.00
27795;DHT22;15176;50.844;4.412;2022-12-10T05:51:32;9.60;96.00
27795;DHT22;15176;50.844;4.412;2022-12-10T05:54:00;9.60;96.90
27795;DHT22;15176;50.844;4.412;2022-12-10T05:56:27;9.60;96.50
27795;DHT22;15176;50.844;4.412;2022-12-10T05:58:59;9.90;97.20
27795;DHT22;15176;50.844;4.412;2022-12-10T06:01:28;9.60;96.20
27795;DHT22;15176;50.844;4.412;2022-12-10T06:03:54;9.20;98.70
27795;DHT22;15176;50.844;4.412;2022-12-10T06:06:23;9.00;97.40
27795;DHT22;15176;50.844;4.412;2022-12-10T06:08:50;8.20;97.90
27795;DHT22;15176;50.844;4.412;2022-12-10T06:11:16;7.80;99.90
27795;DHT22;15176;50.844;4.412;2022-12-10T06:13:42;6.90;99.90
27795;DHT22;15176;50.844;4.412;2022-12-10T06:16:10;7.10;99.90
27795;DHT22;15176;50.844;4.412;2022-12-10T06:18:40;8.00;99.90
27795;DHT22;15176;50.844;4.412;2022-12-10T06:21:08;9.00;99.90
27795;DHT22;15176;50.844;4.412;2022-12-10T06:23:35;9.10;99.90
27795;DHT22;15176;50.844;4.412;2022-12-10T06:26:13;8.70;99.90
27795;DHT22;15176;50.844;4.412;2022-12-10T06:28:41;8.70;98.90
27795;DHT22;15176;50.844;4.412;2022-12-10T06:31:07;8.50;99.90
27795;DHT22;15176;50.844;4.412;2022-12-10T06:33:33;9.00;99.90
27795;DHT22;15176;50.844;4.412;2022-12-10T06:35:59;9.60;99.90
27795;DHT22;15176;50.844;4.412;2022-12-10T06:38:25;9.40;98.90
27795;DHT22;15176;50.844;4.412;2022-12-10T06:40:50;8.90;99.00
27795;DHT22;15176;50.844;4.412;2022-12-10T06:43:16;9.40;99.90
27795;DHT22;15176;50.844;4.412;2022-12-10T06:45:42;8.70;97.70
27795;DHT22;15176;50.844;4.412;2022-12-10T06:48:11;7.40;99.90
27795;DHT22;15176;50.844;4.412;2022-12-10T06:50:36;8.20;99.90
27795;DHT22;15176;50.844;4.412;2022-12-10T06:53:03;8.80;99.90
27795;DHT22;15176;50.844;4.412;2022-12-10T06:55:29;8.70;99.90
27795;DHT22;15176;50.844;4.412;2022-12-10T06:57:54;8.30;99.90
27795;DHT22;15176;50.844;4.412;2022-12-10T07:00:21;8.80;99.90
27795;DHT22;15176;50.844;4.412;2022-12-10T07:02:47;8.50;99.90
27795;DHT22;15176;50.844;4.412;2022-12-10T07:05:14;7.70;99.90
27795;DHT22;15176;50.844;4.412;2022-12-10T07:07:40;8.20;99.90
27795;DHT22;15176;50.844;4.412;2022-12-10T07:10:06;8.70;99.90
27795;DHT22;15176;50.844;4.412;2022-12-10T07:12:32;9.60;99.90
27795;DHT22;15176;50.844;4.412;2022-12-10T07:14:58;9.20;99.90
27795;DHT22;15176;50.844;4.412;2022-12-10T07:17:24;9.50;99.90
27795;DHT22;15176;50.844;4.412;2022-12-10T07:19:51;9.70;99.90
27795;DHT22;15176;50.844;4.412;2022-12-10T07:22:16;9.70;96.70
27795;DHT22;15176;50.844;4.412;2022-12-10T07:24:43;9.60;97.10
27795;DHT22;15176;50.844;4.412;2022-12-10T07:27:09;9.10;97.20
27795;DHT22;15176;50.844;4.412;2022-12-10T07:29:35;8.70;98.60
27795;DHT22;15176;50.844;4.412;2022-12-10T07:32:00;7.20;99.90
27795;DHT22;15176;50.844;4.412;2022-12-10T07:34:26;6.50;99.90
27795;DHT22;15176;50.844;4.412;2022-12-10T07:36:52;6.70;99.90
27795;DHT22;15176;50.844;4.412;2022-12-10T07:39:18;6.70;99.90
27795;DHT22;15176;50.844;4.412;2022-12-10T07:41:48;6.90;99.90
27795;DHT22;15176;50.844;4.412;2022-12-10T07:44:22;6.30;99.90
27795;DHT22;15176;50.844;4.412;2022-12-10T07:46:49;6.50;99.90
27795;DHT22;15176;50.844;4.412;2022-12-10T07:49:16;7.00;99.90
27795;DHT22;15176;50.844;4.412;2022-12-10T07:51:49;7.50;99.90
27795;DHT22;15176;50.844;4.412;2022-12-10T07:54:16;7.10;99.90
27795;DHT22;15176;50.844;4.412;2022-12-10T07:56:43;7.20;99.90
27795;DHT22;15176;50.844;4.412;2022-12-10T07:59:10;7.60;99.90
27795;DHT22;15176;50.844;4.412;2022-12-10T08:01:36;8.10;99.90
27795;DHT22;15176;50.844;4.412;2022-12-10T08:04:01;7.90;99.90
27795;DHT22;15176;50.844;4.412;2022-12-10T08:06:28;8.10;99.90
27795;DHT22;15176;50.844;4.412;2022-12-10T08:08:55;8.10;99.90
27795;DHT22;15176;50.844;4.412;2022-12-10T08:11:23;8.30;99.90
27795;DHT22;15176;50.844;4.412;2022-12-10T08:13:50;8.00;99.90
27795;DHT22;15176;50.844;4.412;2022-12-10T08:16:21;8.90;99.90
27795;DHT22;15176;50.844;4.412;2022-12-10T08:18:57;9.20;99.90
27795;DHT22;15176;50.844;4.412;2022-12-10T08:21:26;9.10;99.90
27795;DHT22;15176;50.844;4.412;2022-12-10T08:23:53;9.60;99.90
27795;DHT22;15176;50.844;4.412;2022-12-10T08:26:22;9.70;99.20
27795;DHT22;15176;50.844;4.412;2022-12-10T08:28:49;9.80;99.90
27795;DHT22;15176;50.844;4.412;2022-12-10T08:31:18;9.50;97.30
27795;DHT22;15176;50.844;4.412;2022-12-10T08:33:44;8.90;99.20
27795;DHT22;15176;50.844;4.412;2022-12-10T08:36:15;8.80;99.60
27795;DHT22;15176;50.844;4.412;2022-12-10T08:38:41;7.90;99.90
27795;DHT22;15176;50.844;4.412;2022-12-10T08:41:19;8.60;99.90
27795;DHT22;15176;50.844;4.412;2022-12-10T08:43:45;8.70;99.90
27795;DHT22;15176;50.844;4.412;2022-12-10T08:46:12;8.10;99.80
27795;DHT22;15176;50.844;4.412;2022-12-10T08:48:38;7.90;99.90
27795;DHT22;15176;50.844;4.412;2022-12-10T08:51:06;8.60;99.90
27795;DHT22;15176;50.844;4.412;2022-12-10T08:53:32;7.60;99.90
27795;DHT22;15176;50.844;4.412;2022-12-10T08:55:59;6.80;99.90
27795;DHT22;15176;50.844;4.412;2022-12-10T08:58:24;7.60;99.90
27795;DHT22;15176;50.844;4.412;2022-12-10T09:00:50;7.80;99.90
27795;DHT22;15176;50.844;4.412;2022-12-10T09:03:17;7.50;99.90
27795;DHT22;15176;50.844;4.412;2022-12-10T09:05:43;7.30;99.90
27795;DHT22;15176;50.844;4.412;2022-12-10T09:08:13;7.70;99.90
27795;DHT22;15176;50.844;4.412;2022-12-10T09:10:40;7.40;99.90
27795;DHT22;15176;50.844;4.412;2022-12-10T09:13:06;7.10;99.90
27795;DHT22;15176;50.844;4.412;2022-12-10T09:15:32;6.90;99.90
27795;DHT22;15176;50.844;4.412;2022-12-10T09:17:58;6.90;99.90
27795;DHT22;15176;50.844;4.412;2022-12-10T09:20:24;7.40;99.90
27795;DHT22;15176;50.844;4.412;2022-12-10T09:22:50;8.10;99.90
27795;DHT22;15176;50.844;4.412;2022-12-10T09:25:16;7.70;99.90
27795;DHT22;15176;50.844;4.412;2022-12-10T09:27:42;7.80;99.90
27795;DHT22;15176;50.844;4.412;2022-12-10T09:30:09;7.10;99.90
27795;DHT22;15176;50.844;4.412;2022-12-10T09:32:35;6.80;99.90
27795;DHT22;15176;50.844;4.412;2022-12-10T09:35:00;5.80;99.90
27795;DHT22;15176;50.844;4.412;2022-12-10T09:37:34;5.90;99.90
27795;DHT22;15176;50.844;4.412;2022-12-10T09:40:00;6.50;99.90
27795;DHT22;15176;50.844;4.412;2022-12-10T09:48:03;8.70;99.90
27795;DHT22;15176;50.844;4.412;2022-12-10T09:53:27;6.50;99.90
27795;DHT22;15176;50.844;4.412;2022-12-10T09:55:54;6.30;99.90
27795;DHT22;15176;50.844;4.412;2022-12-10T09:58:24;6.20;99.90
27795;DHT22;15176;50.844;4.412;2022-12-10T10:01:03;6.70;99.90
27795;DHT22;15176;50.844;4.412;2022-12-10T10:03:33;7.00;99.90
27795;DHT22;15176;50.844;4.412;2022-12-10T10:06:03;7.00;99.90
27795;DHT22;15176;50.844;4.412;2022-12-10T10:10:54;6.20;99.90
27795;DHT22;15176;50.844;4.412;2022-12-10T10:13:49;6.90;99.90
27795;DHT22;15176;50.844;4.412;2022-12-10T10:19:14;7.40;99.90
27795;DHT22;15176;50.844;4.412;2022-12-10T10:21:48;7.80;99.90
27795;DHT22;15176;50.844;4.412;2022-12-10T10:24:34;7.40;99.90
27795;DHT22;15176;50.844;4.412;2022-12-10T10:27:29;7.50;99.90
27795;DHT22;15176;50.844;4.412;2022-12-10T10:29:57;7.20;99.90
27795;DHT22;15176;50.844;4.412;2022-12-10T10:35:43;8.10;99.90
27795;DHT22;15176;50.844;4.412;2022-12-10T10:38:18;8.30;99.90
27795;DHT22;15176;50.844;4.412;2022-12-10T10:40:49;8.50;99.90
27795;DHT22;15176;50.844;4.412;2022-12-10T10:43:21;9.10;99.90
27795;DHT22;15176;50.844;4.412;2022-12-10T10:46:20;9.10;99.90
27795;DHT22;15176;50.844;4.412;2022-12-10T10:48:48;9.80;99.90
27795;DHT22;15176;50.844;4.412;2022-12-10T10:51:21;10.30;99.90
27795;DHT22;15176;50.844;4.412;2022-12-10T10:53:55;9.90;99.90
27795;DHT22;15176;50.844;4.412;2022-12-10T10:56:29;10.10;99.90
27795;DHT22;15176;50.844;4.412;2022-12-10T10:59:34;9.00;99.90
27795;DHT22;15176;50.844;4.412;2022-12-10T11:02:41;9.10;99.90
27795;DHT22;15176;50.844;4.412;2022-12-10T11:05:30;10.40;99.90
27795;DHT22;15176;50.844;4.412;2022-12-10T11:07:58;9.90;99.90
27795;DHT22;15176;50.844;4.412;2022-12-10T11:10:25;8.50;99.90
27795;DHT22;15176;50.844;4.412;2022-12-10T11:13:10;8.00;99.90
27795;DHT22;15176;50.844;4.412;2022-12-10T11:15:44;8.60;99.90
27795;DHT22;15176;50.844;4.412;2022-12-10T11:18:30;9.90;99.90
27795;DHT22;15176;50.844;4.412;2022-12-10T11:21:22;10.20;99.90
27795;DHT22;15176;50.844;4.412;2022-12-10T11:23:52;10.20;99.50
27795;DHT22;15176;50.844;4.412;2022-12-10T11:29:17;9.90;99.40
27795;DHT22;15176;50.844;4.412;2022-12-10T11:40:47;9.00;99.90
27795;DHT22;15176;50.844;4.412;2022-12-10T11:43:39;10.10;99.90
27795;DHT22;15176;50.844;4.412;2022-12-10T11:49:23;10.70;98.70
27795;DHT22;15176;50.844;4.412;2022-12-10T11:57:49;10.10;99.90
27795;DHT22;15176;50.844;4.412;2022-12-10T12:00:24;9.30;99.90
27795;DHT22;15176;50.844;4.412;2022-12-10T12:16:42;9.60;99.90
27795;DHT22;15176;50.844;4.412;2022-12-10T12:19:22;8.90;99.90
27795;DHT22;15176;50.844;4.412;2022-12-10T12:21:50;8.60;99.90
27795;DHT22;15176;50.844;4.412;2022-12-10T12:24:35;9.60;99.90
27795;DHT22;15176;50.844;4.412;2022-12-10T12:27:27;9.30;99.90
27795;DHT22;15176;50.844;4.412;2022-12-10T12:30:13;9.80;99.90
27795;DHT22;15176;50.844;4.412;2022-12-10T12:33:05;9.80;99.90
27795;DHT22;15176;50.844;4.412;2022-12-10T12:35:48;10.10;99.90
27795;DHT22;15176;50.844;4.412;2022-12-10T12:44:04;11.10;99.90
27795;DHT22;15176;50.844;4.412;2022-12-10T12:46:38;11.30;99.60
27795;DHT22;15176;50.844;4.412;2022-12-10T12:52:01;11.80;99.90
27795;DHT22;15176;50.844;4.412;2022-12-10T12:54:29;12.20;99.40
27795;DHT22;15176;50.844;4.412;2022-12-10T13:03:00;12.60;96.40
27795;DHT22;15176;50.844;4.412;2022-12-10T13:05:34;12.50;94.30
27795;DHT22;15176;50.844;4.412;2022-12-10T13:22:05;12.90;93.70
27795;DHT22;15176;50.844;4.412;2022-12-10T13:29:54;12.40;94.80
27795;DHT22;15176;50.844;4.412;2022-12-10T13:35:24;12.20;96.40
27795;DHT22;15176;50.844;4.412;2022-12-10T13:49:30;11.00;97.30
27795;DHT22;15176;50.844;4.412;2022-12-10T13:52:07;10.60;98.40
27795;DHT22;15176;50.844;4.412;2022-12-10T13:57:36;11.80;95.70
27795;DHT22;15176;50.844;4.412;2022-12-10T14:00:21;11.60;95.90
27795;DHT22;15176;50.844;4.412;2022-12-10T14:06:12;11.50;96.70
27795;DHT22;15176;50.844;4.412;2022-12-10T14:08:41;11.20;96.60
27795;DHT22;15176;50.844;4.412;2022-12-10T14:11:19;10.40;99.60
27795;DHT22;15176;50.844;4.412;2022-12-10T14:13:49;9.90;99.90
27795;DHT22;15176;50.844;4.412;2022-12-10T14:16:20;10.10;99.40
27795;DHT22;15176;50.844;4.412;2022-12-10T14:18:53;9.90;99.50
27795;DHT22;15176;50.844;4.412;2022-12-10T14:21:19;9.20;99.90
27795;DHT22;15176;50.844;4.412;2022-12-10T14:23:47;9.00;99.90
27795;DHT22;15176;50.844;4.412;2022-12-10T14:26:18;8.70;99.90
27795;DHT22;15176;50.844;4.412;2022-12-10T14:28:57;8.90;99.90
27795;DHT22;15176;50.844;4.412;2022-12-10T14:31:50;9.00;99.90
27795;DHT22;15176;50.844;4.412;2022-12-10T14:34:20;9.70;99.90
27795;DHT22;15176;50.844;4.412;2022-12-10T14:36:50;10.00;99.90
27795;DHT22;15176;50.844;4.412;2022-12-10T14:39:19;9.00;99.90
27795;DHT22;15176;50.844;4.412;2022-12-10T14:41:47;8.30;99.90
27795;DHT22;15176;50.844;4.412;2022-12-10T14:44:16;8.70;99.90
27795;DHT22;15176;50.844;4.412;2022-12-10T14:46:42;8.40;99.90
27795;DHT22;15176;50.844;4.412;2022-12-10T14:49:23;8.00;99.90
27795;DHT22;15176;50.844;4.412;2022-12-10T14:51:50;8.10;99.90
27795;DHT22;15176;50.844;4.412;2022-12-10T14:54:49;9.00;99.90
27795;DHT22;15176;50.844;4.412;2022-12-10T14:57:21;8.30;99.90
27795;DHT22;15176;50.844;4.412;2022-12-10T15:00:04;8.00;99.90
27795;DHT22;15176;50.844;4.412;2022-12-10T15:02:44;8.10;99.90
27795;DHT22;15176;50.844;4.412;2022-12-10T15:05:15;8.20;99.90
27795;DHT22;15176;50.844;4.412;2022-12-10T15:07:43;8.40;99.90
27795;DHT22;15176;50.844;4.412;2022-12-10T15:10:23;8.40;99.90
27795;DHT22;15176;50.844;4.412;2022-12-10T15:12:50;8.00;99.90
27795;DHT22;15176;50.844;4.412;2022-12-10T15:15:18;8.20;99.90
27795;DHT22;15176;50.844;4.412;2022-12-10T15:20:44;8.70;99.90
27795;DHT22;15176;50.844;4.412;2022-12-10T15:28:40;9.70;99.90
27795;DHT22;15176;50.844;4.412;2022-12-10T15:33:51;10.40;99.90
27795;DHT22;15176;50.844;4.412;2022-12-10T15:39:22;9.80;99.90
27795;DHT22;15176;50.844;4.412;2022-12-10T15:44:38;8.00;99.90
27795;DHT22;15176;50.844;4.412;2022-12-10T15:47:17;7.90;99.90
27795;DHT22;15176;50.844;4.412;2022-12-10T15:49:44;8.60;99.90
27795;DHT22;15176;50.844;4.412;2022-12-10T15:52:14;9.50;99.90
27795;DHT22;15176;50.844;4.412;2022-12-10T15:54:43;9.50;99.90
27795;DHT22;15176;50.844;4.412;2022-12-10T15:57:31;9.80;99.90
27795;DHT22;15176;50.844;4.412;2022-12-10T15:59:59;9.70;99.90
27795;DHT22;15176;50.844;4.412;2022-12-10T16:02:53;9.80;99.90
27795;DHT22;15176;50.844;4.412;2022-12-10T16:05:28;10.00;99.90
27795;DHT22;15176;50.844;4.412;2022-12-10T16:07:58;8.90;99.90
27795;DHT22;15176;50.844;4.412;2022-12-10T16:10:26;9.90;99.90
27795;DHT22;15176;50.844;4.412;2022-12-10T16:13:01;10.40;99.90
27795;DHT22;15176;50.844;4.412;2022-12-10T16:15:43;11.30;99.90
27795;DHT22;15176;50.844;4.412;2022-12-10T16:18:10;12.00;99.90
27795;DHT22;15176;50.844;4.412;2022-12-10T16:20:37;11.00;99.90
27795;DHT22;15176;50.844;4.412;2022-12-10T16:23:04;10.40;99.90
27795;DHT22;15176;50.844;4.412;2022-12-10T16:25:32;9.50;99.90
27795;DHT22;15176;50.844;4.412;2022-12-10T16:27:58;9.10;99.90
27795;DHT22;15176;50.844;4.412;2022-12-10T16:30:42;8.70;99.90
27795;DHT22;15176;50.844;4.412;2022-12-10T16:33:08;8.60;99.90
27795;DHT22;15176;50.844;4.412;2022-12-10T16:35:33;8.40;99.90
27795;DHT22;15176;50.844;4.412;2022-12-10T16:37:59;8.70;99.90
27795;DHT22;15176;50.844;4.412;2022-12-10T16:40:27;8.40;99.90
27795;DHT22;15176;50.844;4.412;2022-12-10T16:42:54;8.90;99.90
27795;DHT22;15176;50.844;4.412;2022-12-10T16:47:54;8.70;99.90
27795;DHT22;15176;50.844;4.412;2022-12-10T16:50:21;8.50;99.90
27795;DHT22;15176;50.844;4.412;2022-12-10T16:52:47;7.80;99.90
27795;DHT22;15176;50.844;4.412;2022-12-10T16:55:17;8.00;99.90
27795;DHT22;15176;50.844;4.412;2022-12-10T16:57:45;8.20;99.90
27795;DHT22;15176;50.844;4.412;2022-12-10T17:00:16;8.40;99.90
27795;DHT22;15176;50.844;4.412;2022-12-10T17:02:43;9.10;99.90
27795;DHT22;15176;50.844;4.412;2022-12-10T17:05:29;9.60;99.90
27795;DHT22;15176;50.844;4.412;2022-12-10T17:07:56;10.20;99.90
27795;DHT22;15176;50.844;4.412;2022-12-10T17:10:23;10.50;99.90
27795;DHT22;15176;50.844;4.412;2022-12-10T17:13:14;10.40;99.90
27795;DHT22;15176;50.844;4.412;2022-12-10T17:15:42;11.10;99.90
27795;DHT22;15176;50.844;4.412;2022-12-10T17:18:18;10.40;99.90
27795;DHT22;15176;50.844;4.412;2022-12-10T17:20:45;11.00;99.90
27795;DHT22;15176;50.844;4.412;2022-12-10T17:23:14;10.40;99.90
27795;DHT22;15176;50.844;4.412;2022-12-10T17:25:41;10.90;99.90
27795;DHT22;15176;50.844;4.412;2022-12-10T17:28:16;10.60;99.90
27795;DHT22;15176;50.844;4.412;2022-12-10T17:30:43;10.50;99.90
27795;DHT22;15176;50.844;4.412;2022-12-10T17:33:20;9.90;99.90
27795;DHT22;15176;50.844;4.412;2022-12-10T17:35:47;10.10;99.90
27795;DHT22;15176;50.844;4.412;2022-12-10T17:38:16;10.90;99.90
27795;DHT22;15176;50.844;4.412;2022-12-10T17:40:43;11.40;99.90
27795;DHT22;15176;50.844;4.412;2022-12-10T17:43:10;11.80;99.30
27795;DHT22;15176;50.844;4.412;2022-12-10T17:45:35;11.30;99.90
27795;DHT22;15176;50.844;4.412;2022-12-10T17:48:01;12.10;99.90
27795;DHT22;15176;50.844;4.412;2022-12-10T17:50:30;12.80;97.60
27795;DHT22;15176;50.844;4.412;2022-12-10T17:53:02;13.00;97.80
27795;DHT22;15176;50.844;4.412;2022-12-10T17:55:29;13.70;95.10
27795;DHT22;15176;50.844;4.412;2022-12-10T17:57:57;13.50;95.20
27795;DHT22;15176;50.844;4.412;2022-12-10T18:00:25;13.90;95.80
27795;DHT22;15176;50.844;4.412;2022-12-10T18:02:51;13.60;93.90
27795;DHT22;15176;50.844;4.412;2022-12-10T18:05:16;13.50;93.90
27795;DHT22;15176;50.844;4.412;2022-12-10T18:07:42;13.30;95.50
27795;DHT22;15176;50.844;4.412;2022-12-10T18:10:23;12.90;96.10
27795;DHT22;15176;50.844;4.412;2022-12-10T18:12:51;12.70;96.80
27795;DHT22;15176;50.844;4.412;2022-12-10T18:15:20;12.70;96.70
27795;DHT22;15176;50.844;4.412;2022-12-10T18:17:46;12.20;94.60
27795;DHT22;15176;50.844;4.412;2022-12-10T18:20:24;12.20;97.90
27795;DHT22;15176;50.844;4.412;2022-12-10T18:22:51;13.00;98.80
27795;DHT22;15176;50.844;4.412;2022-12-10T18:25:17;13.80;94.00
27795;DHT22;15176;50.844;4.412;2022-12-10T18:27:43;13.30;93.20